sensor_id;sensor_type;location;lat;lon;timestamp;temperature;humidity
12841;DHT22;6487;48.626;12.486;2023-09-07T00:01:01;17.40;99.90
12841;DHT22;6487;48.626;12.486;2023-09-07T00:03:31;17.30;99.90
12841;DHT22;6487;48.626;12.486;2023-09-07T00:06:00;17.30;99.90
12841;DHT22;6487;48.626;12.486;2023-09-07T00:08:29;17.30;99.90
12841;DHT22;6487;48.626;12.486;2023-09-07T00:11:04;17.20;99.90
12841;DHT22;6487;48.626;12.486;2023-09-07T00:13:33;17.10;99.90
12841;DHT22;6487;48.626;12.486;2023-09-07T00:16:03;17.10;99.90
12841;DHT22;6487;48.626;12.486;2023-09-07T00:18:32;17.00;99.90
12841;DHT22;6487;48.626;12.486;2023-09-07T00:21:01;17.00;99.90
12841;DHT22;6487;48.626;12.486;2023-09-07T00:23:30;17.00;99.90
12841;DHT22;6487;48.626;12.486;2023-09-07T00:25:58;16.90;99.90
12841;DHT22;6487;48.626;12.486;2023-09-07T00:28:28;16.90;99.90
12841;DHT22;6487;48.626;12.486;2023-09-07T00:30:56;16.90;99.90
12841;DHT22;6487;48.626;12.486;2023-09-07T00:33:25;16.90;99.90
12841;DHT22;6487;48.626;12.486;2023-09-07T00:35:53;16.90;99.90
12841;DHT22;6487;48.626;12.486;2023-09-07T00:38:22;16.90;99.90
12841;DHT22;6487;48.626;12.486;2023-09-07T00:40:50;16.90;99.90
12841;DHT22;6487;48.626;12.486;2023-09-07T00:43:18;16.80;99.90
12841;DHT22;6487;48.626;12.486;2023-09-07T00:45:48;16.80;99.90
12841;DHT22;6487;48.626;12.486;2023-09-07T00:48:18;16.70;99.90
12841;DHT22;6487;48.626;12.486;2023-09-07T00:50:47;16.70;99.90
12841;DHT22;6487;48.626;12.486;2023-09-07T00:53:16;16.60;99.90
12841;DHT22;6487;48.626;12.486;2023-09-07T00:55:45;16.60;99.90
12841;DHT22;6487;48.626;12.486;2023-09-07T00:58:14;16.60;99.90
12841;DHT22;6487;48.626;12.486;2023-09-07T01:00:43;16.60;99.90
12841;DHT22;6487;48.626;12.486;2023-09-07T01:03:12;16.60;99.90
12841;DHT22;6487;48.626;12.486;2023-09-07T01:05:46;16.60;99.90
12841;DHT22;6487;48.626;12.486;2023-09-07T01:08:23;16.60;99.90
12841;DHT22;6487;48.626;12.486;2023-09-07T01:10:52;16.60;99.90
12841;DHT22;6487;48.626;12.486;2023-09-07T01:13:21;16.50;99.90
12841;DHT22;6487;48.626;12.486;2023-09-07T01:15:50;16.50;99.90
12841;DHT22;6487;48.626;12.486;2023-09-07T01:18:20;16.50;99.90
12841;DHT22;6487;48.626;12.486;2023-09-07T01:20:52;16.40;99.90
12841;DHT22;6487;48.626;12.486;2023-09-07T01:23:22;16.50;99.90
12841;DHT22;6487;48.626;12.486;2023-09-07T01:25:55;16.50;99.90
12841;DHT22;6487;48.626;12.486;2023-09-07T01:28:24;16.50;99.90
12841;DHT22;6487;48.626;12.486;2023-09-07T01:30:52;16.40;99.90
12841;DHT22;6487;48.626;12.486;2023-09-07T01:33:21;16.50;99.90
12841;DHT22;6487;48.626;12.486;2023-09-07T01:35:52;16.40;99.90
12841;DHT22;6487;48.626;12.486;2023-09-07T01:38:22;16.40;99.90
12841;DHT22;6487;48.626;12.486;2023-09-07T01:40:50;16.40;99.90
12841;DHT22;6487;48.626;12.486;2023-09-07T01:43:20;16.30;99.90
12841;DHT22;6487;48.626;12.486;2023-09-07T01:45:48;16.20;99.90
12841;DHT22;6487;48.626;12.486;2023-09-07T01:48:16;16.30;99.90
12841;DHT22;6487;48.626;12.486;2023-09-07T01:50:45;16.30;99.90
12841;DHT22;6487;48.626;12.486;2023-09-07T01:53:13;16.20;99.90
12841;DHT22;6487;48.626;12.486;2023-09-07T01:55:43;16.20;99.90
12841;DHT22;6487;48.626;12.486;2023-09-07T01:58:12;16.20;99.90
12841;DHT22;6487;48.626;12.486;2023-09-07T02:00:40;16.10;99.90
12841;DHT22;6487;48.626;12.486;2023-09-07T02:03:09;16.10;99.90
12841;DHT22;6487;48.626;12.486;2023-09-07T02:05:38;16.10;99.90
12841;DHT22;6487;48.626;12.486;2023-09-07T02:08:07;16.00;99.90
12841;DHT22;6487;48.626;12.486;2023-09-07T02:10:35;15.90;99.90
12841;DHT22;6487;48.626;12.486;2023-09-07T02:13:05;15.90;99.90
12841;DHT22;6487;48.626;12.486;2023-09-07T02:15:34;15.90;99.90
12841;DHT22;6487;48.626;12.486;2023-09-07T02:18:05;15.90;99.90
12841;DHT22;6487;48.626;12.486;2023-09-07T02:20:34;15.90;99.90
12841;DHT22;6487;48.626;12.486;2023-09-07T02:23:03;15.70;99.90
12841;DHT22;6487;48.626;12.486;2023-09-07T02:25:31;15.70;99.90
12841;DHT22;6487;48.626;12.486;2023-09-07T02:28:01;15.70;99.90
12841;DHT22;6487;48.626;12.486;2023-09-07T02:30:31;15.70;99.90
12841;DHT22;6487;48.626;12.486;2023-09-07T02:33:00;15.60;99.90
12841;DHT22;6487;48.626;12.486;2023-09-07T02:35:28;15.60;99.90
12841;DHT22;6487;48.626;12.486;2023-09-07T02:37:58;15.60;99.90
12841;DHT22;6487;48.626;12.486;2023-09-07T02:40:29;15.50;99.90
12841;DHT22;6487;48.626;12.486;2023-09-07T02:42:57;15.50;99.90
12841;DHT22;6487;48.626;12.486;2023-09-07T02:45:25;15.50;99.90
12841;DHT22;6487;48.626;12.486;2023-09-07T02:47:55;15.40;99.90
12841;DHT22;6487;48.626;12.486;2023-09-07T02:50:24;15.50;99.90
12841;DHT22;6487;48.626;12.486;2023-09-07T02:52:52;15.40;99.90
12841;DHT22;6487;48.626;12.486;2023-09-07T02:55:21;15.30;99.90
12841;DHT22;6487;48.626;12.486;2023-09-07T02:57:49;15.30;99.90
12841;DHT22;6487;48.626;12.486;2023-09-07T03:00:17;15.20;99.90
12841;DHT22;6487;48.626;12.486;2023-09-07T03:02:47;15.30;99.90
12841;DHT22;6487;48.626;12.486;2023-09-07T03:05:17;15.30;99.90
12841;DHT22;6487;48.626;12.486;2023-09-07T03:07:46;15.30;99.90
12841;DHT22;6487;48.626;12.486;2023-09-07T03:10:15;15.20;99.90
12841;DHT22;6487;48.626;12.486;2023-09-07T03:12:44;15.30;99.90
12841;DHT22;6487;48.626;12.486;2023-09-07T03:15:16;15.20;99.90
12841;DHT22;6487;48.626;12.486;2023-09-07T03:17:44;15.10;99.90
12841;DHT22;6487;48.626;12.486;2023-09-07T03:20:13;15.10;99.90
12841;DHT22;6487;48.626;12.486;2023-09-07T03:22:47;15.00;99.90
12841;DHT22;6487;48.626;12.486;2023-09-07T03:25:15;15.10;99.90
12841;DHT22;6487;48.626;12.486;2023-09-07T03:27:44;15.00;99.90
12841;DHT22;6487;48.626;12.486;2023-09-07T03:30:13;15.00;99.90
12841;DHT22;6487;48.626;12.486;2023-09-07T03:32:41;15.00;99.90
12841;DHT22;6487;48.626;12.486;2023-09-07T03:35:13;14.90;99.90
12841;DHT22;6487;48.626;12.486;2023-09-07T03:37:45;14.90;99.90
12841;DHT22;6487;48.626;12.486;2023-09-07T03:40:14;14.80;99.90
12841;DHT22;6487;48.626;12.486;2023-09-07T03:42:42;14.80;99.90
12841;DHT22;6487;48.626;12.486;2023-09-07T03:45:12;14.80;99.90
12841;DHT22;6487;48.626;12.486;2023-09-07T03:47:41;14.70;99.90
12841;DHT22;6487;48.626;12.486;2023-09-07T03:50:10;14.70;99.90
12841;DHT22;6487;48.626;12.486;2023-09-07T03:52:38;14.70;99.90
12841;DHT22;6487;48.626;12.486;2023-09-07T03:55:09;14.70;99.90
12841;DHT22;6487;48.626;12.486;2023-09-07T03:57:40;14.70;99.90
12841;DHT22;6487;48.626;12.486;2023-09-07T04:00:10;14.60;99.90
12841;DHT22;6487;48.626;12.486;2023-09-07T04:02:39;14.60;99.90
12841;DHT22;6487;48.626;12.486;2023-09-07T04:05:09;14.60;99.90
12841;DHT22;6487;48.626;12.486;2023-09-07T04:07:41;14.60;99.90
12841;DHT22;6487;48.626;12.486;2023-09-07T04:10:13;14.60;99.90
12841;DHT22;6487;48.626;12.486;2023-09-07T04:12:44;14.50;99.90
12841;DHT22;6487;48.626;12.486;2023-09-07T04:15:12;14.50;99.90
12841;DHT22;6487;48.626;12.486;2023-09-07T04:17:41;14.40;99.90
12841;DHT22;6487;48.626;12.486;2023-09-07T04:20:09;14.40;99.90
12841;DHT22;6487;48.626;12.486;2023-09-07T04:22:39;14.40;99.90
12841;DHT22;6487;48.626;12.486;2023-09-07T04:25:08;14.40;99.90
12841;DHT22;6487;48.626;12.486;2023-09-07T04:27:38;14.30;99.90
12841;DHT22;6487;48.626;12.486;2023-09-07T04:30:07;14.30;99.90
12841;DHT22;6487;48.626;12.486;2023-09-07T04:32:37;14.30;99.90
12841;DHT22;6487;48.626;12.486;2023-09-07T04:35:09;14.20;99.90
12841;DHT22;6487;48.626;12.486;2023-09-07T04:37:43;14.20;99.90
12841;DHT22;6487;48.626;12.486;2023-09-07T04:40:13;14.20;99.90
12841;DHT22;6487;48.626;12.486;2023-09-07T04:42:43;14.10;99.90
12841;DHT22;6487;48.626;12.486;2023-09-07T04:45:11;14.10;99.90
12841;DHT22;6487;48.626;12.486;2023-09-07T04:47:39;14.00;99.90
12841;DHT22;6487;48.626;12.486;2023-09-07T04:50:08;14.00;99.90
12841;DHT22;6487;48.626;12.486;2023-09-07T04:52:37;14.00;99.90
12841;DHT22;6487;48.626;12.486;2023-09-07T04:55:07;14.00;99.90
12841;DHT22;6487;48.626;12.486;2023-09-07T04:57:36;14.00;99.90
12841;DHT22;6487;48.626;12.486;2023-09-07T05:00:07;14.00;99.90
12841;DHT22;6487;48.626;12.486;2023-09-07T05:02:37;14.00;99.90
12841;DHT22;6487;48.626;12.486;2023-09-07T05:05:09;14.00;99.90
12841;DHT22;6487;48.626;12.486;2023-09-07T05:07:37;14.00;99.90
12841;DHT22;6487;48.626;12.486;2023-09-07T05:10:07;14.00;99.90
12841;DHT22;6487;48.626;12.486;2023-09-07T05:12:42;14.00;99.90
12841;DHT22;6487;48.626;12.486;2023-09-07T05:15:11;14.00;99.90
12841;DHT22;6487;48.626;12.486;2023-09-07T05:17:40;14.00;99.90
12841;DHT22;6487;48.626;12.486;2023-09-07T05:20:09;14.00;99.90
12841;DHT22;6487;48.626;12.486;2023-09-07T05:22:38;14.10;99.90
12841;DHT22;6487;48.626;12.486;2023-09-07T05:25:08;14.10;99.90
12841;DHT22;6487;48.626;12.486;2023-09-07T05:27:37;14.10;99.90
12841;DHT22;6487;48.626;12.486;2023-09-07T05:30:06;14.10;99.90
12841;DHT22;6487;48.626;12.486;2023-09-07T05:32:36;14.10;99.90
12841;DHT22;6487;48.626;12.486;2023-09-07T05:35:06;14.10;99.90
12841;DHT22;6487;48.626;12.486;2023-09-07T05:37:37;14.10;99.90
12841;DHT22;6487;48.626;12.486;2023-09-07T05:40:07;14.10;99.90
12841;DHT22;6487;48.626;12.486;2023-09-07T05:42:36;14.20;99.90
12841;DHT22;6487;48.626;12.486;2023-09-07T05:45:06;14.20;99.90
12841;DHT22;6487;48.626;12.486;2023-09-07T05:47:37;14.30;99.90
12841;DHT22;6487;48.626;12.486;2023-09-07T05:50:09;14.20;99.90
12841;DHT22;6487;48.626;12.486;2023-09-07T05:52:37;14.20;99.90
12841;DHT22;6487;48.626;12.486;2023-09-07T05:55:07;14.30;99.90
12841;DHT22;6487;48.626;12.486;2023-09-07T05:57:35;14.40;99.90
12841;DHT22;6487;48.626;12.486;2023-09-07T06:00:05;14.50;99.90
12841;DHT22;6487;48.626;12.486;2023-09-07T06:02:34;14.60;99.90
12841;DHT22;6487;48.626;12.486;2023-09-07T06:05:05;14.60;99.90
12841;DHT22;6487;48.626;12.486;2023-09-07T06:07:36;14.70;99.90
12841;DHT22;6487;48.626;12.486;2023-09-07T06:10:05;14.70;99.90
12841;DHT22;6487;48.626;12.486;2023-09-07T06:12:35;14.80;99.90
12841;DHT22;6487;48.626;12.486;2023-09-07T06:15:04;15.00;99.90
12841;DHT22;6487;48.626;12.486;2023-09-07T06:17:33;15.10;99.90
12841;DHT22;6487;48.626;12.486;2023-09-07T06:20:04;15.30;99.90
12841;DHT22;6487;48.626;12.486;2023-09-07T06:22:34;15.50;99.90
12841;DHT22;6487;48.626;12.486;2023-09-07T06:25:02;15.60;99.90
12841;DHT22;6487;48.626;12.486;2023-09-07T06:27:31;15.70;99.90
12841;DHT22;6487;48.626;12.486;2023-09-07T06:29:59;15.90;99.90
12841;DHT22;6487;48.626;12.486;2023-09-07T06:32:28;16.00;99.90
12841;DHT22;6487;48.626;12.486;2023-09-07T06:34:57;16.10;99.90
12841;DHT22;6487;48.626;12.486;2023-09-07T06:37:27;16.30;99.90
12841;DHT22;6487;48.626;12.486;2023-09-07T06:39:55;16.50;99.90
12841;DHT22;6487;48.626;12.486;2023-09-07T06:42:23;16.60;99.90
12841;DHT22;6487;48.626;12.486;2023-09-07T06:44:53;16.80;99.90
12841;DHT22;6487;48.626;12.486;2023-09-07T06:47:21;17.10;99.90
12841;DHT22;6487;48.626;12.486;2023-09-07T06:49:50;17.20;99.90
12841;DHT22;6487;48.626;12.486;2023-09-07T06:52:20;17.40;99.90
12841;DHT22;6487;48.626;12.486;2023-09-07T06:54:52;17.60;99.90
12841;DHT22;6487;48.626;12.486;2023-09-07T06:57:21;17.80;99.90
12841;DHT22;6487;48.626;12.486;2023-09-07T06:59:50;17.90;99.90
12841;DHT22;6487;48.626;12.486;2023-09-07T07:02:21;18.00;99.90
12841;DHT22;6487;48.626;12.486;2023-09-07T07:04:50;18.30;99.90
12841;DHT22;6487;48.626;12.486;2023-09-07T07:07:18;18.60;99.90
12841;DHT22;6487;48.626;12.486;2023-09-07T07:09:46;18.70;99.90
12841;DHT22;6487;48.626;12.486;2023-09-07T07:12:17;19.00;99.90
12841;DHT22;6487;48.626;12.486;2023-09-07T07:14:45;19.20;99.90
12841;DHT22;6487;48.626;12.486;2023-09-07T07:17:13;19.40;99.90
12841;DHT22;6487;48.626;12.486;2023-09-07T07:19:42;19.60;99.90
12841;DHT22;6487;48.626;12.486;2023-09-07T07:22:13;19.80;99.90
12841;DHT22;6487;48.626;12.486;2023-09-07T07:24:45;19.90;99.90
12841;DHT22;6487;48.626;12.486;2023-09-07T07:27:15;20.10;99.90
12841;DHT22;6487;48.626;12.486;2023-09-07T07:29:44;20.30;99.90
12841;DHT22;6487;48.626;12.486;2023-09-07T07:32:12;20.50;99.90
12841;DHT22;6487;48.626;12.486;2023-09-07T07:34:41;20.70;99.90
12841;DHT22;6487;48.626;12.486;2023-09-07T07:37:10;20.90;99.90
12841;DHT22;6487;48.626;12.486;2023-09-07T07:39:39;21.00;99.90
12841;DHT22;6487;48.626;12.486;2023-09-07T07:42:07;21.20;99.90
12841;DHT22;6487;48.626;12.486;2023-09-07T07:44:38;21.30;99.90
12841;DHT22;6487;48.626;12.486;2023-09-07T07:47:06;21.50;99.90
12841;DHT22;6487;48.626;12.486;2023-09-07T07:49:35;21.60;99.90
12841;DHT22;6487;48.626;12.486;2023-09-07T07:52:04;21.90;99.90
12841;DHT22;6487;48.626;12.486;2023-09-07T07:54:33;22.10;99.90
12841;DHT22;6487;48.626;12.486;2023-09-07T07:57:02;22.20;99.90
12841;DHT22;6487;48.626;12.486;2023-09-07T07:59:33;22.40;99.90
12841;DHT22;6487;48.626;12.486;2023-09-07T08:02:04;22.40;99.90
12841;DHT22;6487;48.626;12.486;2023-09-07T08:04:33;22.60;99.90
12841;DHT22;6487;48.626;12.486;2023-09-07T08:07:03;22.80;99.90
12841;DHT22;6487;48.626;12.486;2023-09-07T08:09:31;23.00;99.90
12841;DHT22;6487;48.626;12.486;2023-09-07T08:12:00;23.20;99.90
12841;DHT22;6487;48.626;12.486;2023-09-07T08:14:30;23.40;99.90
12841;DHT22;6487;48.626;12.486;2023-09-07T08:16:58;23.70;99.90
12841;DHT22;6487;48.626;12.486;2023-09-07T08:19:28;23.90;99.90
12841;DHT22;6487;48.626;12.486;2023-09-07T08:21:58;24.10;99.90
12841;DHT22;6487;48.626;12.486;2023-09-07T08:24:26;24.20;99.90
12841;DHT22;6487;48.626;12.486;2023-09-07T08:26:57;24.20;96.90
12841;DHT22;6487;48.626;12.486;2023-09-07T08:29:27;24.30;97.80
12841;DHT22;6487;48.626;12.486;2023-09-07T08:31:59;24.30;97.40
12841;DHT22;6487;48.626;12.486;2023-09-07T08:34:32;24.40;97.70
12841;DHT22;6487;48.626;12.486;2023-09-07T08:37:03;24.30;96.60
12841;DHT22;6487;48.626;12.486;2023-09-07T08:39:33;24.30;96.30
12841;DHT22;6487;48.626;12.486;2023-09-07T08:42:04;24.50;96.00
12841;DHT22;6487;48.626;12.486;2023-09-07T08:44:37;24.60;96.40
12841;DHT22;6487;48.626;12.486;2023-09-07T08:47:07;24.80;96.20
12841;DHT22;6487;48.626;12.486;2023-09-07T08:49:38;25.00;95.80
12841;DHT22;6487;48.626;12.486;2023-09-07T08:52:07;24.90;95.40
12841;DHT22;6487;48.626;12.486;2023-09-07T08:54:37;25.10;95.70
12841;DHT22;6487;48.626;12.486;2023-09-07T08:57:06;25.30;95.30
12841;DHT22;6487;48.626;12.486;2023-09-07T08:59:35;25.40;95.20
12841;DHT22;6487;48.626;12.486;2023-09-07T09:02:07;25.50;94.40
12841;DHT22;6487;48.626;12.486;2023-09-07T09:04:39;25.50;95.30
12841;DHT22;6487;48.626;12.486;2023-09-07T09:07:08;25.70;94.90
12841;DHT22;6487;48.626;12.486;2023-09-07T09:09:39;25.90;94.80
12841;DHT22;6487;48.626;12.486;2023-09-07T09:12:08;25.90;94.00
12841;DHT22;6487;48.626;12.486;2023-09-07T09:14:36;26.20;94.70
12841;DHT22;6487;48.626;12.486;2023-09-07T09:17:05;26.40;93.70
12841;DHT22;6487;48.626;12.486;2023-09-07T09:19:34;26.30;92.70
12841;DHT22;6487;48.626;12.486;2023-09-07T09:22:06;26.40;92.70
12841;DHT22;6487;48.626;12.486;2023-09-07T09:24:34;26.40;93.70
12841;DHT22;6487;48.626;12.486;2023-09-07T09:27:03;26.40;92.20
12841;DHT22;6487;48.626;12.486;2023-09-07T09:29:32;26.20;92.50
12841;DHT22;6487;48.626;12.486;2023-09-07T09:32:03;26.20;92.40
12841;DHT22;6487;48.626;12.486;2023-09-07T09:34:33;26.10;92.00
12841;DHT22;6487;48.626;12.486;2023-09-07T09:37:05;26.20;92.40
12841;DHT22;6487;48.626;12.486;2023-09-07T09:39:41;26.30;92.20
12841;DHT22;6487;48.626;12.486;2023-09-07T09:42:10;26.50;92.20
12841;DHT22;6487;48.626;12.486;2023-09-07T09:44:41;26.80;92.10
12841;DHT22;6487;48.626;12.486;2023-09-07T09:47:13;26.90;92.00
12841;DHT22;6487;48.626;12.486;2023-09-07T09:49:43;27.10;92.80
12841;DHT22;6487;48.626;12.486;2023-09-07T09:52:13;27.10;91.20
12841;DHT22;6487;48.626;12.486;2023-09-07T09:54:42;27.10;90.80
12841;DHT22;6487;48.626;12.486;2023-09-07T09:57:11;27.20;91.50
12841;DHT22;6487;48.626;12.486;2023-09-07T09:59:39;27.40;90.60
12841;DHT22;6487;48.626;12.486;2023-09-07T10:02:08;27.60;91.90
12841;DHT22;6487;48.626;12.486;2023-09-07T10:04:37;27.80;92.20
12841;DHT22;6487;48.626;12.486;2023-09-07T10:07:06;27.90;90.40
12841;DHT22;6487;48.626;12.486;2023-09-07T10:09:39;27.70;89.50
12841;DHT22;6487;48.626;12.486;2023-09-07T10:12:11;27.50;89.60
12841;DHT22;6487;48.626;12.486;2023-09-07T10:14:43;27.80;91.10
12841;DHT22;6487;48.626;12.486;2023-09-07T10:17:22;28.00;91.20
12841;DHT22;6487;48.626;12.486;2023-09-07T10:20:01;28.20;90.20
12841;DHT22;6487;48.626;12.486;2023-09-07T10:22:32;28.00;86.70
12841;DHT22;6487;48.626;12.486;2023-09-07T10:25:02;27.80;87.60
12841;DHT22;6487;48.626;12.486;2023-09-07T10:27:36;27.90;86.30
12841;DHT22;6487;48.626;12.486;2023-09-07T10:30:10;27.90;89.30
12841;DHT22;6487;48.626;12.486;2023-09-07T10:32:43;28.30;88.70
12841;DHT22;6487;48.626;12.486;2023-09-07T10:35:15;28.20;87.10
12841;DHT22;6487;48.626;12.486;2023-09-07T10:37:47;28.30;86.50
12841;DHT22;6487;48.626;12.486;2023-09-07T10:40:20;28.10;85.40
12841;DHT22;6487;48.626;12.486;2023-09-07T10:42:49;28.10;86.40
12841;DHT22;6487;48.626;12.486;2023-09-07T10:45:29;28.30;85.30
12841;DHT22;6487;48.626;12.486;2023-09-07T10:47:57;28.70;85.00
12841;DHT22;6487;48.626;12.486;2023-09-07T10:50:25;28.60;85.30
12841;DHT22;6487;48.626;12.486;2023-09-07T10:52:54;28.70;85.60
12841;DHT22;6487;48.626;12.486;2023-09-07T10:55:25;28.70;83.40
12841;DHT22;6487;48.626;12.486;2023-09-07T10:57:54;28.70;82.10
12841;DHT22;6487;48.626;12.486;2023-09-07T11:00:24;28.60;85.60
12841;DHT22;6487;48.626;12.486;2023-09-07T11:02:52;28.70;82.20
12841;DHT22;6487;48.626;12.486;2023-09-07T11:05:21;28.70;83.00
12841;DHT22;6487;48.626;12.486;2023-09-07T11:07:50;28.90;84.80
12841;DHT22;6487;48.626;12.486;2023-09-07T11:10:19;28.90;82.50
12841;DHT22;6487;48.626;12.486;2023-09-07T11:12:51;28.90;79.70
12841;DHT22;6487;48.626;12.486;2023-09-07T11:15:19;29.00;81.50
12841;DHT22;6487;48.626;12.486;2023-09-07T11:17:50;29.00;81.50
12841;DHT22;6487;48.626;12.486;2023-09-07T11:20:21;29.00;80.30
12841;DHT22;6487;48.626;12.486;2023-09-07T11:22:49;29.10;81.50
12841;DHT22;6487;48.626;12.486;2023-09-07T11:25:34;29.30;78.60
12841;DHT22;6487;48.626;12.486;2023-09-07T11:28:06;29.30;82.80
12841;DHT22;6487;48.626;12.486;2023-09-07T11:30:35;29.30;81.10
12841;DHT22;6487;48.626;12.486;2023-09-07T11:33:05;29.20;79.80
12841;DHT22;6487;48.626;12.486;2023-09-07T11:35:34;29.30;77.40
12841;DHT22;6487;48.626;12.486;2023-09-07T11:38:04;29.20;77.50
12841;DHT22;6487;48.626;12.486;2023-09-07T11:40:35;29.20;77.00
12841;DHT22;6487;48.626;12.486;2023-09-07T11:43:05;29.40;79.60
12841;DHT22;6487;48.626;12.486;2023-09-07T11:45:33;29.20;78.00
12841;DHT22;6487;48.626;12.486;2023-09-07T11:48:02;29.50;81.70
12841;DHT22;6487;48.626;12.486;2023-09-07T11:50:32;29.60;78.90
12841;DHT22;6487;48.626;12.486;2023-09-07T11:53:00;29.60;76.20
12841;DHT22;6487;48.626;12.486;2023-09-07T11:55:29;29.80;76.40
12841;DHT22;6487;48.626;12.486;2023-09-07T11:57:57;29.80;76.00
12841;DHT22;6487;48.626;12.486;2023-09-07T12:00:27;29.60;74.10
12841;DHT22;6487;48.626;12.486;2023-09-07T12:02:58;29.20;73.70
12841;DHT22;6487;48.626;12.486;2023-09-07T12:05:26;29.30;77.20
12841;DHT22;6487;48.626;12.486;2023-09-07T12:07:55;29.60;76.20
12841;DHT22;6487;48.626;12.486;2023-09-07T12:10:23;29.60;75.30
12841;DHT22;6487;48.626;12.486;2023-09-07T12:12:52;29.70;76.90
12841;DHT22;6487;48.626;12.486;2023-09-07T12:15:20;29.90;75.10
12841;DHT22;6487;48.626;12.486;2023-09-07T12:17:50;30.10;75.40
12841;DHT22;6487;48.626;12.486;2023-09-07T12:20:21;30.30;77.90
12841;DHT22;6487;48.626;12.486;2023-09-07T12:22:50;30.30;75.20
12841;DHT22;6487;48.626;12.486;2023-09-07T12:25:18;30.50;76.90
12841;DHT22;6487;48.626;12.486;2023-09-07T12:27:47;30.50;75.50
12841;DHT22;6487;48.626;12.486;2023-09-07T12:30:21;30.70;75.10
12841;DHT22;6487;48.626;12.486;2023-09-07T12:32:52;30.80;73.90
12841;DHT22;6487;48.626;12.486;2023-09-07T12:35:21;31.00;73.40
12841;DHT22;6487;48.626;12.486;2023-09-07T12:37:49;31.20;76.40
12841;DHT22;6487;48.626;12.486;2023-09-07T12:40:18;31.20;70.40
12841;DHT22;6487;48.626;12.486;2023-09-07T12:42:46;31.10;72.40
12841;DHT22;6487;48.626;12.486;2023-09-07T12:45:15;31.30;73.40
12841;DHT22;6487;48.626;12.486;2023-09-07T12:47:43;31.50;72.50
12841;DHT22;6487;48.626;12.486;2023-09-07T12:50:13;31.30;70.20
12841;DHT22;6487;48.626;12.486;2023-09-07T12:52:41;31.50;73.20
12841;DHT22;6487;48.626;12.486;2023-09-07T12:55:10;31.30;72.20
12841;DHT22;6487;48.626;12.486;2023-09-07T12:57:38;31.20;70.30
12841;DHT22;6487;48.626;12.486;2023-09-07T13:00:08;31.30;70.00
12841;DHT22;6487;48.626;12.486;2023-09-07T13:02:38;31.40;70.50
12841;DHT22;6487;48.626;12.486;2023-09-07T13:05:07;31.40;71.30
12841;DHT22;6487;48.626;12.486;2023-09-07T13:07:37;31.30;70.10
12841;DHT22;6487;48.626;12.486;2023-09-07T13:10:08;31.40;70.30
12841;DHT22;6487;48.626;12.486;2023-09-07T13:12:37;31.30;70.20
12841;DHT22;6487;48.626;12.486;2023-09-07T13:15:06;31.30;70.00
12841;DHT22;6487;48.626;12.486;2023-09-07T13:17:36;31.30;70.20
12841;DHT22;6487;48.626;12.486;2023-09-07T13:20:05;31.10;69.60
12841;DHT22;6487;48.626;12.486;2023-09-07T13:22:34;31.30;70.50
12841;DHT22;6487;48.626;12.486;2023-09-07T13:25:05;31.20;68.70
12841;DHT22;6487;48.626;12.486;2023-09-07T13:27:33;31.10;70.50
12841;DHT22;6487;48.626;12.486;2023-09-07T13:30:03;31.20;68.70
12841;DHT22;6487;48.626;12.486;2023-09-07T13:32:34;31.30;71.70
12841;DHT22;6487;48.626;12.486;2023-09-07T13:35:04;31.50;73.60
12841;DHT22;6487;48.626;12.486;2023-09-07T13:37:32;31.50;69.10
12841;DHT22;6487;48.626;12.486;2023-09-07T13:40:06;31.30;69.50
12841;DHT22;6487;48.626;12.486;2023-09-07T13:42:35;31.30;67.80
12841;DHT22;6487;48.626;12.486;2023-09-07T13:45:06;31.20;68.10
12841;DHT22;6487;48.626;12.486;2023-09-07T13:47:35;31.10;69.60
12841;DHT22;6487;48.626;12.486;2023-09-07T13:50:05;31.20;68.40
12841;DHT22;6487;48.626;12.486;2023-09-07T13:52:34;31.10;68.40
12841;DHT22;6487;48.626;12.486;2023-09-07T13:55:04;30.90;68.40
12841;DHT22;6487;48.626;12.486;2023-09-07T13:57:33;31.10;68.80
12841;DHT22;6487;48.626;12.486;2023-09-07T14:00:03;31.00;69.60
12841;DHT22;6487;48.626;12.486;2023-09-07T14:02:32;30.80;70.70
12841;DHT22;6487;48.626;12.486;2023-09-07T14:05:01;31.00;68.80
12841;DHT22;6487;48.626;12.486;2023-09-07T14:07:30;30.90;69.20
12841;DHT22;6487;48.626;12.486;2023-09-07T14:09:59;31.10;70.90
12841;DHT22;6487;48.626;12.486;2023-09-07T14:12:29;31.00;68.90
12841;DHT22;6487;48.626;12.486;2023-09-07T14:14:58;30.90;69.10
12841;DHT22;6487;48.626;12.486;2023-09-07T14:17:26;31.00;69.50
12841;DHT22;6487;48.626;12.486;2023-09-07T14:19:54;31.00;69.90
12841;DHT22;6487;48.626;12.486;2023-09-07T14:22:23;31.00;69.00
12841;DHT22;6487;48.626;12.486;2023-09-07T14:24:51;31.10;69.00
12841;DHT22;6487;48.626;12.486;2023-09-07T14:27:19;31.10;69.50
12841;DHT22;6487;48.626;12.486;2023-09-07T14:29:49;31.30;69.50
12841;DHT22;6487;48.626;12.486;2023-09-07T14:32:18;31.10;69.60
12841;DHT22;6487;48.626;12.486;2023-09-07T14:34:46;31.10;69.40
12841;DHT22;6487;48.626;12.486;2023-09-07T14:37:15;31.10;68.60
12841;DHT22;6487;48.626;12.486;2023-09-07T14:39:43;31.10;69.50
12841;DHT22;6487;48.626;12.486;2023-09-07T14:42:17;31.10;69.10
12841;DHT22;6487;48.626;12.486;2023-09-07T14:44:52;31.40;69.90
12841;DHT22;6487;48.626;12.486;2023-09-07T14:47:21;31.30;69.50
12841;DHT22;6487;48.626;12.486;2023-09-07T14:49:52;31.50;70.60
12841;DHT22;6487;48.626;12.486;2023-09-07T14:52:20;31.30;68.80
12841;DHT22;6487;48.626;12.486;2023-09-07T14:54:51;31.30;69.40
12841;DHT22;6487;48.626;12.486;2023-09-07T14:57:19;31.20;72.30
12841;DHT22;6487;48.626;12.486;2023-09-07T14:59:48;31.30;69.70
12841;DHT22;6487;48.626;12.486;2023-09-07T15:02:18;31.50;72.10
12841;DHT22;6487;48.626;12.486;2023-09-07T15:04:47;31.00;71.60
12841;DHT22;6487;48.626;12.486;2023-09-07T15:07:15;30.80;70.90
12841;DHT22;6487;48.626;12.486;2023-09-07T15:09:44;30.80;72.60
12841;DHT22;6487;48.626;12.486;2023-09-07T15:12:12;30.70;71.10
12841;DHT22;6487;48.626;12.486;2023-09-07T15:14:40;30.60;72.90
12841;DHT22;6487;48.626;12.486;2023-09-07T15:17:10;30.50;74.30
12841;DHT22;6487;48.626;12.486;2023-09-07T15:19:41;30.60;74.30
12841;DHT22;6487;48.626;12.486;2023-09-07T15:22:10;30.70;74.30
12841;DHT22;6487;48.626;12.486;2023-09-07T15:24:38;30.50;73.70
12841;DHT22;6487;48.626;12.486;2023-09-07T15:27:09;30.50;73.40
12841;DHT22;6487;48.626;12.486;2023-09-07T15:29:38;30.50;73.80
12841;DHT22;6487;48.626;12.486;2023-09-07T15:32:07;30.70;77.00
12841;DHT22;6487;48.626;12.486;2023-09-07T15:34:37;30.60;76.50
12841;DHT22;6487;48.626;12.486;2023-09-07T15:37:06;30.70;77.10
12841;DHT22;6487;48.626;12.486;2023-09-07T15:39:35;30.50;77.30
12841;DHT22;6487;48.626;12.486;2023-09-07T15:42:04;30.30;76.80
12841;DHT22;6487;48.626;12.486;2023-09-07T15:44:32;30.20;77.10